createdAt,value
2023-03-08T00:01:46.038Z,66.44
2023-03-08T00:04:12.478Z,66.49
2023-03-08T00:06:38.837Z,66.84
2023-03-08T00:09:05.198Z,67.09
2023-03-08T00:11:31.546Z,66.95
2023-03-08T00:13:57.905Z,67.22
2023-03-08T00:16:24.374Z,67.17
2023-03-08T00:18:50.615Z,67.29
2023-03-08T00:21:16.968Z,67.54
2023-03-08T00:23:43.286Z,67.78
2023-03-08T00:26:09.716Z,67.82
2023-03-08T00:28:36.055Z,67.64
2023-03-08T00:31:02.473Z,68.11
2023-03-08T00:33:28.790Z,68.16
2023-03-08T00:35:55.139Z,68.29
2023-03-08T00:38:21.537Z,67.94
2023-03-08T00:40:47.920Z,68.12
2023-03-08T00:43:14.279Z,67.96
2023-03-08T00:45:40.634Z,68.01
2023-03-08T00:48:06.963Z,67.97
2023-03-08T00:50:33.645Z,68.26
2023-03-08T00:53:00.002Z,68.13
2023-03-08T00:55:26.335Z,68.34
2023-03-08T00:57:52.693Z,68.48
2023-03-08T01:00:19.075Z,68.40
2023-03-08T01:02:45.432Z,68.37
2023-03-08T01:05:11.804Z,68.54
2023-03-08T01:07:38.156Z,68.84
2023-03-08T01:10:04.501Z,69.11
2023-03-08T01:12:30.875Z,69.50
2023-03-08T01:14:57.197Z,69.66
2023-03-08T01:17:23.592Z,69.93
2023-03-08T01:19:49.940Z,70.25
2023-03-08T01:22:16.279Z,70.56
2023-03-08T01:24:42.638Z,71.01
2023-03-08T01:27:08.977Z,70.93
2023-03-08T01:29:35.378Z,70.97
2023-03-08T01:32:01.766Z,71.21
2023-03-08T01:34:28.089Z,71.16
2023-03-08T01:36:54.475Z,71.19
2023-03-08T01:39:20.843Z,71.27
2023-03-08T01:41:47.199Z,71.34
2023-03-08T01:44:13.591Z,71.43
2023-03-08T01:46:39.966Z,71.67
2023-03-08T01:49:06.323Z,71.50
2023-03-08T01:51:32.733Z,71.20
2023-03-08T01:53:59.042Z,71.11
2023-03-08T01:56:25.392Z,71.34
2023-03-08T01:58:51.759Z,71.26
2023-03-08T02:01:18.258Z,71.37
2023-03-08T02:03:44.555Z,71.92
2023-03-08T02:06:11.003Z,71.85
2023-03-08T02:08:37.391Z,72.01
2023-03-08T02:11:03.733Z,72.31
2023-03-08T02:13:30.072Z,72.24
2023-03-08T02:15:56.418Z,72.62
2023-03-08T02:18:22.791Z,72.75
2023-03-08T02:20:49.170Z,72.95
2023-03-08T02:23:15.521Z,72.96
2023-03-08T02:25:41.903Z,72.94
2023-03-08T02:28:08.282Z,72.98
2023-03-08T02:30:34.643Z,72.92
2023-03-08T02:33:01.079Z,73.29
2023-03-08T02:35:27.458Z,73.59
2023-03-08T02:37:53.772Z,73.89
2023-03-08T02:40:20.160Z,74.00
2023-03-08T02:42:46.541Z,73.85
2023-03-08T02:45:12.886Z,74.48
2023-03-08T02:47:39.206Z,74.34
2023-03-08T02:50:05.595Z,74.29
2023-03-08T02:52:31.945Z,74.68
2023-03-08T02:54:58.315Z,74.33
2023-03-08T02:57:25.036Z,74.28
2023-03-08T02:59:51.375Z,74.30
2023-03-08T03:02:17.741Z,75.09
2023-03-08T03:04:44.079Z,75.16
2023-03-08T03:07:10.438Z,75.04
2023-03-08T03:09:36.816Z,75.21
2023-03-08T03:12:03.203Z,75.08
2023-03-08T03:14:29.604Z,75.05
2023-03-08T03:16:55.910Z,74.97
2023-03-08T03:19:22.326Z,75.07
2023-03-08T03:21:48.642Z,74.92
2023-03-08T03:24:15.019Z,75.74
2023-03-08T03:26:41.345Z,75.66
2023-03-08T03:29:07.750Z,75.61
2023-03-08T03:31:34.072Z,75.67
2023-03-08T03:34:00.446Z,75.37
2023-03-08T03:36:26.795Z,75.77
2023-03-08T03:38:53.225Z,76.31
2023-03-08T03:41:19.581Z,76.31
2023-03-08T03:43:45.915Z,76.38
2023-03-08T03:46:12.358Z,76.61
2023-03-08T03:48:38.742Z,76.64
2023-03-08T03:51:05.114Z,76.60
2023-03-08T03:53:31.488Z,76.49
2023-03-08T03:55:57.880Z,76.76
2023-03-08T03:58:24.216Z,76.83
2023-03-08T04:00:50.540Z,76.76
2023-03-08T04:03:17.083Z,76.62
2023-03-08T04:05:43.294Z,77.03
2023-03-08T04:08:09.649Z,76.68
2023-03-08T04:10:35.976Z,76.61
2023-03-08T04:13:02.373Z,76.91
2023-03-08T04:15:28.683Z,77.13
2023-03-08T04:17:55.058Z,77.16
2023-03-08T04:20:21.415Z,77.20
2023-03-08T04:22:47.806Z,77.54
2023-03-08T04:25:14.132Z,77.76
2023-03-08T04:27:40.514Z,77.83
2023-03-08T04:30:06.835Z,77.62
2023-03-08T04:32:33.259Z,77.43
2023-03-08T04:34:59.544Z,77.61
2023-03-08T04:37:25.888Z,77.35
2023-03-08T04:39:52.226Z,77.47
2023-03-08T04:42:18.576Z,77.41
2023-03-08T04:44:44.919Z,77.20
2023-03-08T04:47:11.289Z,77.02
2023-03-08T04:49:37.665Z,76.91
2023-03-08T04:52:04.053Z,76.76
2023-03-08T04:54:30.380Z,77.01
2023-03-08T04:56:56.749Z,77.08
2023-03-08T04:59:23.099Z,77.30
2023-03-08T05:01:49.528Z,77.35
2023-03-08T05:04:15.799Z,77.18
2023-03-08T05:06:42.186Z,76.75
2023-03-08T05:09:08.547Z,76.85
2023-03-08T05:11:34.962Z,76.50
2023-03-08T05:14:01.305Z,76.26
2023-03-08T05:16:27.672Z,75.98
2023-03-08T05:18:54.029Z,75.34
2023-03-08T05:21:20.419Z,73.82
2023-03-08T05:23:46.781Z,73.03
2023-03-08T05:26:13.120Z,71.88
2023-03-08T05:28:39.483Z,71.76
2023-03-08T05:31:05.827Z,71.08
2023-03-08T05:33:32.148Z,71.26
2023-03-08T05:35:58.613Z,71.47
2023-03-08T05:38:24.919Z,71.61
2023-03-08T05:40:51.380Z,72.11
2023-03-08T05:43:17.700Z,72.02
2023-03-08T05:45:44.182Z,72.08
2023-03-08T05:48:10.463Z,72.31
2023-03-08T05:50:37.012Z,72.36
2023-03-08T05:53:03.371Z,72.96
2023-03-08T05:55:29.780Z,73.53
2023-03-08T05:57:56.156Z,73.95
2023-03-08T06:00:22.521Z,72.87
2023-03-08T06:02:51.442Z,70.90
2023-03-08T06:05:17.704Z,69.41
2023-03-08T06:07:44.049Z,67.72
2023-03-08T06:10:10.417Z,66.08
2023-03-08T06:12:36.784Z,65.37
2023-03-08T06:15:03.174Z,65.21
2023-03-08T06:17:29.537Z,66.62
2023-03-08T06:19:55.978Z,67.70
2023-03-08T06:22:22.379Z,68.99
2023-03-08T06:24:48.797Z,69.50
2023-03-08T06:27:15.152Z,67.49
2023-03-08T06:29:41.505Z,65.95
2023-03-08T06:32:07.872Z,64.14
2023-03-08T06:34:34.175Z,62.68
2023-03-08T06:37:00.498Z,61.29
2023-03-08T06:39:26.867Z,59.67
2023-03-08T06:41:53.347Z,59.40
2023-03-08T06:44:19.705Z,58.59
2023-03-08T06:46:46.139Z,57.17
2023-03-08T06:49:12.481Z,56.08
2023-03-08T06:51:38.827Z,56.63
2023-03-08T06:54:05.256Z,56.44
2023-03-08T06:56:31.630Z,55.01
2023-03-08T06:58:57.947Z,54.42
2023-03-08T07:01:24.327Z,53.28
2023-03-08T07:03:50.745Z,52.51
2023-03-08T07:06:17.069Z,51.76
2023-03-08T07:08:43.857Z,50.19
2023-03-08T07:11:10.248Z,49.21
2023-03-08T07:13:36.631Z,51.03
2023-03-08T07:16:02.963Z,52.38
2023-03-08T07:18:29.293Z,52.69
2023-03-08T07:20:55.674Z,52.50
2023-03-08T07:23:22.075Z,52.76
2023-03-08T07:25:55.852Z,53.57
2023-03-08T07:28:22.261Z,55.02
2023-03-08T07:30:48.565Z,56.23
2023-03-08T07:33:14.975Z,56.61
2023-03-08T07:35:41.397Z,56.53
2023-03-08T07:38:07.731Z,56.48
2023-03-08T07:40:34.118Z,57.66
2023-03-08T07:43:00.506Z,57.74
2023-03-08T07:45:26.850Z,57.19
2023-03-08T07:47:53.211Z,56.98
2023-03-08T07:50:19.567Z,56.69
2023-03-08T07:52:45.963Z,55.63
2023-03-08T07:55:13.458Z,55.74
2023-03-08T07:57:39.881Z,56.25
2023-03-08T08:00:06.201Z,56.07
2023-03-08T08:02:32.603Z,55.94
2023-03-08T08:04:59.058Z,55.57
2023-03-08T08:07:26.430Z,56.13
2023-03-08T08:09:52.814Z,55.95
2023-03-08T08:12:19.277Z,55.73
2023-03-08T08:14:45.600Z,56.66
2023-03-08T08:17:11.971Z,56.10
2023-03-08T08:19:38.283Z,54.79
2023-03-08T08:22:04.741Z,54.42
2023-03-08T08:24:31.070Z,54.65
2023-03-08T08:26:57.411Z,54.84
2023-03-08T08:29:23.785Z,53.61
2023-03-08T08:31:50.250Z,53.21
2023-03-08T08:34:16.690Z,51.38
2023-03-08T08:36:43.062Z,51.04
2023-03-08T08:39:09.403Z,52.10
2023-03-08T08:41:35.808Z,50.07
2023-03-08T08:44:02.133Z,48.91
2023-03-08T08:46:28.543Z,48.13
2023-03-08T08:48:54.893Z,45.81
2023-03-08T08:51:21.252Z,45.86
2023-03-08T08:53:47.616Z,44.68
2023-03-08T08:56:25.686Z,45.91
2023-03-08T08:58:40.391Z,46.43
2023-03-08T09:01:09.177Z,47.49
2023-03-08T09:03:33.256Z,48.18
2023-03-08T09:05:59.706Z,48.39
2023-03-08T09:08:26.083Z,48.74
2023-03-08T09:10:52.431Z,49.75
2023-03-08T09:13:18.871Z,49.56
2023-03-08T09:15:45.141Z,50.51
2023-03-08T09:18:11.715Z,50.34
2023-03-08T09:20:38.092Z,50.82
2023-03-08T09:23:04.571Z,51.26
2023-03-08T09:25:30.952Z,51.98
2023-03-08T09:27:57.267Z,51.85
2023-03-08T09:30:23.632Z,51.33
2023-03-08T09:32:50.020Z,50.85
2023-03-08T09:35:16.328Z,49.99
2023-03-08T09:37:42.652Z,48.17
2023-03-08T09:40:09.006Z,47.84
2023-03-08T09:42:35.350Z,47.50
2023-03-08T09:45:01.731Z,46.11
2023-03-08T09:47:28.076Z,45.89
2023-03-08T09:49:54.431Z,44.95
2023-03-08T09:52:20.880Z,44.32
2023-03-08T09:54:47.415Z,44.76
2023-03-08T09:57:13.746Z,43.76
2023-03-08T09:59:40.100Z,42.00
2023-03-08T10:02:06.476Z,42.78
2023-03-08T10:04:32.925Z,42.14
2023-03-08T10:06:59.228Z,42.36
2023-03-08T10:09:25.604Z,42.80
2023-03-08T10:11:51.972Z,41.06
2023-03-08T10:14:20.690Z,41.04
2023-03-08T10:16:47.076Z,41.19
2023-03-08T10:19:13.385Z,40.14
2023-03-08T10:21:39.780Z,39.44
2023-03-08T10:24:06.117Z,38.75
2023-03-08T10:26:32.446Z,38.61
2023-03-08T10:28:58.799Z,38.97
2023-03-08T10:31:25.154Z,39.81
2023-03-08T10:33:51.511Z,38.16
2023-03-08T10:36:17.883Z,38.57
2023-03-08T10:38:44.229Z,40.34
2023-03-08T10:41:10.615Z,41.27
2023-03-08T10:43:37.001Z,40.93
2023-03-08T10:46:03.398Z,41.61
2023-03-08T10:48:29.743Z,41.12
2023-03-08T10:50:56.106Z,41.78
2023-03-08T10:53:22.477Z,41.32
2023-03-08T10:55:48.846Z,40.45
2023-03-08T10:58:15.226Z,40.48
2023-03-08T11:00:41.537Z,39.98
2023-03-08T11:03:07.918Z,40.18
2023-03-08T11:05:34.235Z,41.50
2023-03-08T11:08:00.609Z,42.04
2023-03-08T11:10:27.007Z,42.38
2023-03-08T11:12:53.377Z,41.81
2023-03-08T11:15:20.828Z,41.45
2023-03-08T11:17:47.188Z,41.61
2023-03-08T11:20:13.630Z,41.19
2023-03-08T11:22:39.988Z,40.81
2023-03-08T11:25:06.404Z,40.96
2023-03-08T11:27:32.815Z,40.75
2023-03-08T11:30:00.327Z,38.98
2023-03-08T11:32:26.858Z,37.88
2023-03-08T11:34:53.136Z,35.35
2023-03-08T11:37:19.462Z,35.22
2023-03-08T11:39:45.801Z,34.44
2023-03-08T11:42:12.549Z,34.94
2023-03-08T11:44:38.504Z,36.16
2023-03-08T11:47:04.870Z,36.39
2023-03-08T11:49:31.264Z,36.86
2023-03-08T11:51:57.666Z,36.14
2023-03-08T11:54:24.092Z,36.07
2023-03-08T11:56:50.418Z,35.84
2023-03-08T11:59:16.812Z,36.17
2023-03-08T12:01:43.191Z,36.17
2023-03-08T12:04:09.649Z,35.85
2023-03-08T12:06:35.959Z,36.20
2023-03-08T12:09:02.257Z,36.48
2023-03-08T12:11:28.616Z,36.38
2023-03-08T12:13:54.943Z,35.21
2023-03-08T12:16:21.441Z,34.53
2023-03-08T12:18:47.689Z,33.62
2023-03-08T12:21:14.008Z,33.57
2023-03-08T12:23:40.385Z,32.93
2023-03-08T12:26:06.795Z,33.23
2023-03-08T12:28:33.176Z,34.31
2023-03-08T12:30:59.583Z,35.49
2023-03-08T12:33:26.134Z,35.99
2023-03-08T12:35:52.467Z,36.08
2023-03-08T12:38:18.825Z,35.81
2023-03-08T12:40:45.134Z,36.18
2023-03-08T12:43:11.448Z,36.46
2023-03-08T12:45:37.882Z,36.44
2023-03-08T12:48:04.270Z,36.96
2023-03-08T12:50:30.657Z,36.22
2023-03-08T12:52:56.977Z,35.80
2023-03-08T12:55:23.297Z,36.20
2023-03-08T12:57:49.697Z,36.27
2023-03-08T13:00:16.071Z,36.35
2023-03-08T13:02:42.426Z,36.78
2023-03-08T13:05:09.970Z,36.31
2023-03-08T13:07:36.311Z,36.21
2023-03-08T13:10:02.675Z,35.04
2023-03-08T13:12:29.027Z,34.39
2023-03-08T13:14:55.379Z,33.00
2023-03-08T13:17:21.723Z,33.34
2023-03-08T13:19:48.130Z,32.00
2023-03-08T13:22:14.573Z,32.71
2023-03-08T13:24:40.841Z,33.09
2023-03-08T13:27:07.225Z,34.10
2023-03-08T13:29:33.784Z,34.69
2023-03-08T13:32:00.100Z,35.31
2023-03-08T13:34:26.477Z,35.60
2023-03-08T13:36:52.844Z,35.71
2023-03-08T13:39:19.178Z,35.47
2023-03-08T13:41:45.552Z,35.31
2023-03-08T13:44:11.920Z,35.36
2023-03-08T13:46:38.289Z,35.25
2023-03-08T13:49:04.692Z,35.51
2023-03-08T13:51:31.008Z,35.88
2023-03-08T13:53:57.341Z,35.78
2023-03-08T13:56:23.807Z,35.46
2023-03-08T13:58:50.082Z,35.16
2023-03-08T14:01:16.512Z,35.73
2023-03-08T14:03:42.931Z,35.71
2023-03-08T14:06:09.373Z,35.74
2023-03-08T14:08:35.636Z,35.84
2023-03-08T14:11:02.080Z,35.60
2023-03-08T14:13:28.369Z,35.73
2023-03-08T14:15:54.769Z,36.16
2023-03-08T14:18:21.161Z,36.40
2023-03-08T14:20:47.622Z,37.01
2023-03-08T14:23:15.361Z,37.17
2023-03-08T14:25:40.389Z,37.68
2023-03-08T14:28:06.810Z,37.94
2023-03-08T14:30:33.189Z,38.02
2023-03-08T14:32:59.634Z,38.22
2023-03-08T14:35:25.967Z,38.22
2023-03-08T14:37:52.290Z,38.48
2023-03-08T14:40:18.673Z,38.36
2023-03-08T14:42:45.001Z,38.17
2023-03-08T14:45:11.409Z,38.31
2023-03-08T14:47:37.766Z,38.14
2023-03-08T14:50:04.156Z,38.38
2023-03-08T14:52:30.489Z,38.49
2023-03-08T14:54:56.902Z,38.63
2023-03-08T14:57:23.318Z,38.66
2023-03-08T14:59:49.698Z,38.30
2023-03-08T15:02:16.079Z,38.54
2023-03-08T15:04:42.428Z,38.16
2023-03-08T15:07:09.337Z,38.40
2023-03-08T15:09:35.751Z,38.54
2023-03-08T15:12:02.127Z,38.87
2023-03-08T15:14:28.464Z,39.17
2023-03-08T15:16:54.804Z,39.03
2023-03-08T15:19:21.157Z,39.18
2023-03-08T15:21:47.700Z,39.31
2023-03-08T15:24:14.102Z,39.58
2023-03-08T15:26:40.498Z,39.78
2023-03-08T15:29:06.841Z,40.02
2023-03-08T15:31:33.255Z,40.35
2023-03-08T15:34:00.554Z,40.60
2023-03-08T15:36:25.971Z,40.69
2023-03-08T15:38:52.361Z,40.86
2023-03-08T15:41:18.724Z,40.79
2023-03-08T15:43:45.076Z,41.01
2023-03-08T15:46:11.487Z,41.11
2023-03-08T15:48:37.840Z,40.79
2023-03-08T15:51:04.167Z,41.00
2023-03-08T15:53:35.729Z,41.05
2023-03-08T15:55:56.939Z,41.31
2023-03-08T15:58:23.310Z,41.46
2023-03-08T16:00:49.697Z,41.71
2023-03-08T16:03:16.088Z,42.07
2023-03-08T16:05:42.404Z,42.38
2023-03-08T16:08:08.808Z,42.69
2023-03-08T16:10:35.193Z,43.09
2023-03-08T16:13:01.585Z,43.31
2023-03-08T16:15:27.907Z,43.52
2023-03-08T16:17:54.566Z,43.81
2023-03-08T16:20:20.936Z,43.95
2023-03-08T16:22:47.286Z,44.10
2023-03-08T16:25:13.727Z,44.29
2023-03-08T16:27:40.081Z,44.41
2023-03-08T16:30:06.465Z,44.63
2023-03-08T16:32:32.915Z,44.71
2023-03-08T16:34:59.190Z,44.86
2023-03-08T16:37:25.961Z,44.98
2023-03-08T16:39:52.327Z,45.18
2023-03-08T16:42:18.673Z,45.15
2023-03-08T16:44:45.098Z,45.02
2023-03-08T16:47:11.499Z,45.15
2023-03-08T16:49:37.804Z,45.29
2023-03-08T16:52:04.159Z,45.61
2023-03-08T16:54:30.526Z,45.79
2023-03-08T16:57:04.832Z,45.92
2023-03-08T16:59:25.452Z,46.06
2023-03-08T17:01:51.855Z,46.20
2023-03-08T17:04:18.198Z,46.39
2023-03-08T17:06:44.626Z,46.34
2023-03-08T17:09:11.964Z,46.58
2023-03-08T17:11:37.342Z,46.74
2023-03-08T17:14:03.703Z,46.81
2023-03-08T17:16:30.136Z,46.84
2023-03-08T17:18:56.495Z,46.89
2023-03-08T17:21:22.893Z,47.07
2023-03-08T17:23:49.278Z,47.18
2023-03-08T17:26:16.814Z,47.25
2023-03-08T17:28:43.310Z,47.39
2023-03-08T17:31:09.704Z,47.52
2023-03-08T17:33:36.072Z,47.55
2023-03-08T17:36:02.566Z,47.68
2023-03-08T17:38:28.788Z,47.91
2023-03-08T17:40:55.223Z,48.00
2023-03-08T17:43:21.539Z,48.18
2023-03-08T17:45:47.970Z,48.27
2023-03-08T17:48:14.353Z,48.46
2023-03-08T17:50:40.723Z,48.53
2023-03-08T17:53:07.043Z,48.66
2023-03-08T17:55:33.397Z,48.76
2023-03-08T17:57:59.795Z,48.81
2023-03-08T18:00:27.636Z,48.73
2023-03-08T18:02:53.957Z,48.61
2023-03-08T18:05:20.306Z,48.61
2023-03-08T18:07:49.293Z,48.75
2023-03-08T18:10:15.681Z,48.72
2023-03-08T18:12:42.009Z,48.74
2023-03-08T18:15:08.394Z,48.73
2023-03-08T18:17:34.818Z,48.78
2023-03-08T18:20:01.166Z,48.59
2023-03-08T18:22:27.495Z,48.84
2023-03-08T18:24:53.898Z,48.50
2023-03-08T18:27:20.499Z,48.46
2023-03-08T18:29:46.908Z,48.66
2023-03-08T18:32:13.325Z,48.86
2023-03-08T18:34:39.651Z,48.85
2023-03-08T18:37:06.047Z,48.97
2023-03-08T18:39:32.450Z,48.64
2023-03-08T18:41:58.768Z,48.69
2023-03-08T18:44:25.442Z,48.33
2023-03-08T18:46:51.962Z,48.27
2023-03-08T18:49:18.322Z,48.27
2023-03-08T18:51:44.835Z,48.18
2023-03-08T18:54:11.388Z,47.68
2023-03-08T18:56:37.774Z,47.61
2023-03-08T18:59:04.110Z,47.46
2023-03-08T19:01:30.536Z,47.51
2023-03-08T19:03:56.918Z,47.55
2023-03-08T19:06:23.313Z,47.65
2023-03-08T19:08:49.753Z,47.61
2023-03-08T19:11:16.364Z,47.63
2023-03-08T19:13:43.792Z,47.44
2023-03-08T19:16:10.125Z,47.45
2023-03-08T19:18:40.447Z,47.31
2023-03-08T19:21:09.508Z,47.28
2023-03-08T19:23:35.990Z,48.09
2023-03-08T19:26:02.369Z,49.12
2023-03-08T19:28:28.712Z,49.99
2023-03-08T19:30:55.313Z,50.62
2023-03-08T19:33:31.304Z,51.08
2023-03-08T19:35:48.072Z,51.52
2023-03-08T19:38:14.485Z,51.69
2023-03-08T19:40:40.818Z,51.97
2023-03-08T19:43:07.231Z,52.43
2023-03-08T19:45:33.767Z,52.59
2023-03-08T19:48:00.127Z,52.52
2023-03-08T19:50:26.446Z,52.58
2023-03-08T19:52:52.815Z,52.61
2023-03-08T19:55:19.285Z,52.98
2023-03-08T19:57:46.740Z,52.90
2023-03-08T20:00:13.056Z,52.96
2023-03-08T20:02:39.475Z,53.10
2023-03-08T20:05:05.831Z,52.97
2023-03-08T20:07:32.384Z,53.08
2023-03-08T20:10:07.352Z,53.19
2023-03-08T20:12:25.176Z,53.05
2023-03-08T20:14:51.506Z,52.93
2023-03-08T20:17:17.922Z,52.82
2023-03-08T20:19:45.290Z,52.66
2023-03-08T20:22:11.708Z,52.68
2023-03-08T20:24:38.113Z,52.76
2023-03-08T20:27:05.573Z,52.96
2023-03-08T20:29:31.903Z,53.05
2023-03-08T20:31:58.444Z,53.26
2023-03-08T20:34:24.816Z,53.30
2023-03-08T20:36:53.291Z,53.41
2023-03-08T20:39:19.617Z,53.50
2023-03-08T20:41:46.097Z,53.84
2023-03-08T20:44:12.582Z,54.10
2023-03-08T20:46:38.927Z,54.16
2023-03-08T20:49:05.253Z,54.67
2023-03-08T20:51:31.649Z,54.83
2023-03-08T20:53:58.104Z,55.04
2023-03-08T20:56:26.739Z,55.27
2023-03-08T20:58:53.128Z,55.55
2023-03-08T21:01:19.556Z,55.80
2023-03-08T21:03:45.909Z,55.85
2023-03-08T21:06:12.307Z,56.08
2023-03-08T21:08:38.646Z,56.07
2023-03-08T21:11:05.061Z,56.16
2023-03-08T21:13:31.415Z,56.30
2023-03-08T21:15:57.844Z,56.35
2023-03-08T21:18:24.195Z,56.58
2023-03-08T21:20:50.785Z,56.30
2023-03-08T21:23:17.104Z,56.36
2023-03-08T21:25:43.500Z,56.90
2023-03-08T21:28:09.865Z,57.50
2023-03-08T21:30:38.623Z,58.06
2023-03-08T21:33:04.953Z,58.60
2023-03-08T21:35:31.351Z,59.05
2023-03-08T21:37:57.630Z,59.45
2023-03-08T21:40:23.970Z,59.75
2023-03-08T21:42:50.335Z,59.87
2023-03-08T21:45:16.677Z,60.15
2023-03-08T21:47:45.655Z,60.36
2023-03-08T21:50:12.048Z,60.56
2023-03-08T21:52:38.392Z,60.45
2023-03-08T21:55:04.746Z,60.44
2023-03-08T21:57:31.132Z,60.74
2023-03-08T21:59:57.462Z,60.89
2023-03-08T22:02:23.874Z,61.27
2023-03-08T22:04:50.217Z,61.77
2023-03-08T22:07:16.568Z,62.20
2023-03-08T22:09:42.947Z,62.53
2023-03-08T22:12:09.268Z,62.85
2023-03-08T22:14:35.629Z,63.19
2023-03-08T22:17:04.126Z,63.19
2023-03-08T22:19:30.481Z,63.55
2023-03-08T22:21:56.823Z,63.92
2023-03-08T22:24:23.179Z,64.30
2023-03-08T22:26:49.671Z,64.71
2023-03-08T22:29:16.041Z,64.90
2023-03-08T22:31:42.485Z,65.26
2023-03-08T22:34:08.756Z,65.16
2023-03-08T22:36:35.112Z,65.19
2023-03-08T22:39:01.534Z,64.84
2023-03-08T22:41:27.896Z,64.74
2023-03-08T22:43:54.211Z,65.10
2023-03-08T22:46:20.548Z,65.13
2023-03-08T22:48:46.870Z,64.99
2023-03-08T22:51:13.243Z,65.06
2023-03-08T22:53:39.561Z,65.23
2023-03-08T22:56:05.957Z,65.40
2023-03-08T22:58:32.276Z,65.57
2023-03-08T23:00:58.624Z,65.76
2023-03-08T23:03:25.047Z,65.63
2023-03-08T23:05:51.478Z,65.59
2023-03-08T23:08:17.839Z,65.48
2023-03-08T23:10:44.219Z,65.66
2023-03-08T23:13:14.344Z,65.56
2023-03-08T23:15:36.922Z,65.56
2023-03-08T23:18:03.251Z,65.42
2023-03-08T23:20:29.675Z,65.56
2023-03-08T23:22:55.974Z,65.56
2023-03-08T23:25:22.339Z,65.58
2023-03-08T23:27:48.691Z,65.45
2023-03-08T23:30:15.085Z,65.40
2023-03-08T23:32:41.459Z,65.59
2023-03-08T23:35:07.776Z,65.70
2023-03-08T23:37:34.143Z,65.83
2023-03-08T23:40:00.514Z,65.85
2023-03-08T23:42:26.873Z,65.99
2023-03-08T23:44:53.211Z,66.23
2023-03-08T23:47:19.568Z,66.39
2023-03-08T23:49:45.917Z,66.55
2023-03-08T23:52:12.282Z,66.71
2023-03-08T23:54:38.686Z,67.18
2023-03-08T23:57:05.044Z,67.54
2023-03-08T23:59:31.392Z,67.67
